createdAt,value
2022-09-16T00:02:10.320Z,18.68
2022-09-16T00:04:38.361Z,19.29
2022-09-16T00:07:05.767Z,19.16
2022-09-16T00:09:33.408Z,18.57
2022-09-16T00:12:01.037Z,18.98
2022-09-16T00:14:28.377Z,19.20
2022-09-16T00:16:55.752Z,19.12
2022-09-16T00:19:23.356Z,19.50
2022-09-16T00:21:50.860Z,18.82
2022-09-16T00:24:18.226Z,18.92
2022-09-16T00:26:45.839Z,18.52
2022-09-16T00:29:13.290Z,18.41
2022-09-16T00:31:40.722Z,18.77
2022-09-16T00:34:08.337Z,18.55
2022-09-16T00:36:35.710Z,18.27
2022-09-16T00:39:03.083Z,17.71
2022-09-16T00:41:33.222Z,17.68
2022-09-16T00:44:02.438Z,18.69
2022-09-16T00:46:40.594Z,17.58
2022-09-16T00:49:28.481Z,16.81
2022-09-16T00:52:00.198Z,17.61
2022-09-16T00:54:27.834Z,17.56
2022-09-16T00:56:55.917Z,17.33
2022-09-16T00:59:28.327Z,17.31
2022-09-16T01:01:56.599Z,16.94
2022-09-16T01:04:29.202Z,17.51
2022-09-16T01:06:56.822Z,16.97
2022-09-16T01:09:24.424Z,17.04
2022-09-16T01:11:52.051Z,17.31
2022-09-16T01:14:38.327Z,17.09
2022-09-16T01:17:28.058Z,17.05
2022-09-16T01:20:01.694Z,16.86
2022-09-16T01:22:56.675Z,16.83
2022-09-16T01:25:58.545Z,17.06
2022-09-16T01:29:01.056Z,17.02
2022-09-16T01:31:42.753Z,17.18
2022-09-16T01:34:12.931Z,16.99
2022-09-16T01:37:04.287Z,16.87
2022-09-16T01:39:37.582Z,16.77
2022-09-16T01:42:20.956Z,16.87
2022-09-16T01:44:57.236Z,16.81
2022-09-16T01:47:54.868Z,17.10
2022-09-16T01:50:31.895Z,17.07
2022-09-16T01:53:11.768Z,17.02
2022-09-16T01:55:57.155Z,16.65
2022-09-16T01:58:28.612Z,16.87
2022-09-16T02:00:59.222Z,17.37
2022-09-16T02:03:31.087Z,17.52
2022-09-16T02:06:19.554Z,17.83
2022-09-16T02:08:50.616Z,17.80
2022-09-16T02:11:18.277Z,18.12
2022-09-16T02:13:54.548Z,18.01
2022-09-16T02:16:29.357Z,17.79
2022-09-16T02:19:02.217Z,17.79
2022-09-16T02:21:31.185Z,17.60
2022-09-16T02:24:00.648Z,17.48
2022-09-16T02:26:30.536Z,17.72
2022-09-16T02:28:58.261Z,18.01
2022-09-16T02:31:28.343Z,18.14
2022-09-16T02:34:12.385Z,17.49
2022-09-16T02:36:40.724Z,17.65
2022-09-16T02:39:09.620Z,18.28
2022-09-16T02:41:37.808Z,18.23
2022-09-16T02:44:05.631Z,18.50
2022-09-16T02:46:55.564Z,18.50
2022-09-16T02:49:44.429Z,17.78
2022-09-16T02:52:37.752Z,18.01
2022-09-16T02:55:12.406Z,17.92
2022-09-16T02:57:39.734Z,17.26
2022-09-16T03:00:07.876Z,17.93
2022-09-16T03:02:35.289Z,17.66
2022-09-16T03:05:03.503Z,17.63
2022-09-16T03:07:31.103Z,17.81
2022-09-16T03:09:58.453Z,17.95
2022-09-16T03:12:39.509Z,18.22
2022-09-16T03:15:23.101Z,18.14
2022-09-16T03:17:56.402Z,18.18
2022-09-16T03:20:33.971Z,18.15
2022-09-16T03:23:29.574Z,18.57
2022-09-16T03:26:15.834Z,18.16
2022-09-16T03:28:54.767Z,17.59
2022-09-16T03:31:28.973Z,17.63
2022-09-16T03:34:17.828Z,17.55
2022-09-16T03:36:47.968Z,18.14
2022-09-16T03:39:15.585Z,17.61
2022-09-16T03:41:42.909Z,18.01
2022-09-16T03:44:10.582Z,18.24
2022-09-16T03:46:37.983Z,17.49
2022-09-16T03:49:05.326Z,17.97
2022-09-16T03:51:32.960Z,18.02
2022-09-16T03:54:00.282Z,18.24
2022-09-16T03:56:27.633Z,18.13
2022-09-16T03:58:55.391Z,17.76
2022-09-16T04:01:22.816Z,17.72
2022-09-16T04:03:52.326Z,17.99
2022-09-16T04:06:19.961Z,18.23
2022-09-16T04:08:47.394Z,18.30
2022-09-16T04:11:15.099Z,17.52
2022-09-16T04:13:42.449Z,17.93
2022-09-16T04:16:09.857Z,18.14
2022-09-16T04:18:37.753Z,18.28
2022-09-16T04:21:05.271Z,18.52
2022-09-16T04:23:32.614Z,18.41
2022-09-16T04:26:01.388Z,17.67
2022-09-16T04:28:30.360Z,17.90
2022-09-16T04:31:05.583Z,18.03
2022-09-16T04:33:34.478Z,18.49
2022-09-16T04:36:09.105Z,17.33
2022-09-16T04:38:36.903Z,17.96
2022-09-16T04:41:06.591Z,18.23
2022-09-16T04:43:33.958Z,18.58
2022-09-16T04:46:01.722Z,18.41
2022-09-16T04:48:29.338Z,18.72
2022-09-16T04:51:10.856Z,18.61
2022-09-16T04:53:39.817Z,18.45
2022-09-16T04:56:08.657Z,18.30
2022-09-16T04:58:36.346Z,18.74
2022-09-16T05:01:06.021Z,18.63
2022-09-16T05:03:33.762Z,18.61
2022-09-16T05:06:08.317Z,18.77
2022-09-16T05:08:36.013Z,18.84
2022-09-16T05:11:07.780Z,19.03
2022-09-16T05:13:35.155Z,19.20
2022-09-16T05:16:07.345Z,18.80
2022-09-16T05:18:39.412Z,19.09
2022-09-16T05:21:09.162Z,19.13
2022-09-16T05:23:37.846Z,19.02
2022-09-16T05:26:06.733Z,19.31
2022-09-16T05:28:35.129Z,19.13
2022-09-16T05:31:13.023Z,19.19
2022-09-16T05:33:41.454Z,19.51
2022-09-16T05:36:16.743Z,18.50
2022-09-16T05:38:59.178Z,19.19
2022-09-16T05:41:31.837Z,19.22
2022-09-16T05:44:00.555Z,19.28
2022-09-16T05:46:28.222Z,19.19
2022-09-16T05:48:56.440Z,19.09
2022-09-16T05:51:24.505Z,18.90
2022-09-16T05:53:52.386Z,19.24
2022-09-16T05:56:21.946Z,19.48
2022-09-16T05:58:51.558Z,18.50
2022-09-16T06:01:20.450Z,18.94
2022-09-16T06:03:48.852Z,18.93
2022-09-16T06:06:25.836Z,19.04
2022-09-16T06:08:55.750Z,19.22
2022-09-16T06:11:23.345Z,19.22
2022-09-16T06:13:55.721Z,19.57
2022-09-16T06:16:25.847Z,19.39
2022-09-16T06:18:54.085Z,19.71
2022-09-16T06:21:21.600Z,19.86
2022-09-16T06:23:49.243Z,19.76
2022-09-16T06:26:18.286Z,19.75
2022-09-16T06:28:45.933Z,19.72
2022-09-16T06:31:15.066Z,19.81
2022-09-16T06:33:42.475Z,19.45
2022-09-16T06:36:16.485Z,19.75
2022-09-16T06:38:44.871Z,19.58
2022-09-16T06:41:12.662Z,19.28
2022-09-16T06:43:40.102Z,19.52
2022-09-16T06:46:18.645Z,19.58
2022-09-16T06:48:47.219Z,19.60
2022-09-16T06:51:16.712Z,19.73
2022-09-16T06:53:44.405Z,19.75
2022-09-16T06:56:13.390Z,19.65
2022-09-16T06:58:42.341Z,19.96
2022-09-16T07:01:17.211Z,19.79
2022-09-16T07:03:47.743Z,20.01
2022-09-16T07:06:15.541Z,20.54
2022-09-16T07:08:43.542Z,19.88
2022-09-16T07:11:21.645Z,20.35
2022-09-16T07:13:49.551Z,20.56
2022-09-16T07:16:20.011Z,20.70
2022-09-16T07:18:48.361Z,20.36
2022-09-16T07:21:17.265Z,19.99
2022-09-16T07:23:45.409Z,20.37
2022-09-16T07:26:17.761Z,20.22
2022-09-16T07:28:47.048Z,20.22
2022-09-16T07:31:25.404Z,20.36
2022-09-16T07:33:54.447Z,20.59
2022-09-16T07:36:23.703Z,19.66
2022-09-16T07:38:51.450Z,19.79
2022-09-16T07:41:24.134Z,19.87
2022-09-16T07:43:51.540Z,19.95
2022-09-16T07:46:19.949Z,20.13
2022-09-16T07:48:48.055Z,19.50
2022-09-16T07:51:19.999Z,19.73
2022-09-16T07:53:47.724Z,20.04
2022-09-16T07:56:16.901Z,19.56
2022-09-16T07:58:45.415Z,19.44
2022-09-16T08:01:15.158Z,20.33
2022-09-16T08:03:43.459Z,19.50
2022-09-16T08:06:15.409Z,19.93
2022-09-16T08:08:43.356Z,20.49
2022-09-16T08:11:10.851Z,20.37
2022-09-16T08:13:38.494Z,19.91
2022-09-16T08:16:14.648Z,20.18
2022-09-16T08:18:43.669Z,19.63
2022-09-16T08:21:19.670Z,20.13
2022-09-16T08:23:47.088Z,19.85
2022-09-16T08:26:15.090Z,20.05
2022-09-16T08:28:57.532Z,20.37
2022-09-16T08:31:31.200Z,20.23
2022-09-16T08:33:58.653Z,20.65
2022-09-16T08:36:26.286Z,20.76
2022-09-16T08:38:56.878Z,20.27
2022-09-16T08:41:39.566Z,20.83
2022-09-16T08:44:13.114Z,20.51
2022-09-16T08:46:57.830Z,20.39
2022-09-16T08:49:28.503Z,20.62
2022-09-16T08:51:55.964Z,19.83
2022-09-16T08:54:37.886Z,20.10
2022-09-16T08:57:05.998Z,19.98
2022-09-16T08:59:37.371Z,19.55
2022-09-16T09:02:24.214Z,19.84
2022-09-16T09:04:51.860Z,19.99
2022-09-16T09:07:47.943Z,19.68
2022-09-16T09:10:38.203Z,19.07
2022-09-16T09:13:14.220Z,19.13
2022-09-16T09:15:44.842Z,19.30
2022-09-16T09:18:31.882Z,19.00
2022-09-16T09:21:11.015Z,19.25
2022-09-16T09:24:09.091Z,18.51
2022-09-16T09:27:04.877Z,18.62
2022-09-16T09:29:54.322Z,19.14
2022-09-16T09:32:49.077Z,19.60
2022-09-16T09:35:21.674Z,19.22
2022-09-16T09:37:55.195Z,19.69
2022-09-16T09:40:35.963Z,19.86
2022-09-16T09:43:23.630Z,19.96
2022-09-16T09:46:26.868Z,19.72
2022-09-16T09:49:14.880Z,19.79
2022-09-16T09:51:45.708Z,19.97
2022-09-16T09:54:31.751Z,20.25
2022-09-16T09:57:07.995Z,20.40
2022-09-16T10:00:13.008Z,20.83
2022-09-16T10:02:44.976Z,21.32
2022-09-16T10:05:22.948Z,21.10
2022-09-16T10:07:52.179Z,21.31
2022-09-16T10:10:21.834Z,21.39
2022-09-16T10:12:52.417Z,21.39
2022-09-16T10:15:30.361Z,21.82
2022-09-16T10:17:59.396Z,21.61
2022-09-16T10:20:36.989Z,21.91
2022-09-16T10:23:20.577Z,22.14
2022-09-16T10:25:50.676Z,22.17
2022-09-16T10:28:23.979Z,21.93
2022-09-16T10:30:52.634Z,21.88
2022-09-16T10:33:34.983Z,21.89
2022-09-16T10:36:02.901Z,22.32
2022-09-16T10:38:41.787Z,22.34
2022-09-16T10:41:16.097Z,22.29
2022-09-16T10:44:00.840Z,22.14
2022-09-16T10:46:28.686Z,22.22
2022-09-16T10:49:09.895Z,22.32
2022-09-16T10:51:37.310Z,21.80
2022-09-16T10:54:06.139Z,21.92
2022-09-16T10:56:47.360Z,22.29
2022-09-16T10:59:15.540Z,21.92
2022-09-16T11:01:46.223Z,22.10
2022-09-16T11:04:26.489Z,22.11
2022-09-16T11:06:57.382Z,22.25
2022-09-16T11:09:53.498Z,22.13
2022-09-16T11:12:46.028Z,22.57
2022-09-16T11:15:25.279Z,22.77
2022-09-16T11:18:04.887Z,22.28
2022-09-16T11:20:50.951Z,22.72
2022-09-16T11:23:35.429Z,22.62
2022-09-16T11:26:28.253Z,22.97
2022-09-16T11:29:03.451Z,23.17
2022-09-16T11:31:59.847Z,23.45
2022-09-16T11:34:46.743Z,23.55
2022-09-16T11:37:26.190Z,23.74
2022-09-16T11:40:16.319Z,23.84
2022-09-16T11:43:13.378Z,24.20
2022-09-16T11:45:52.510Z,24.37
2022-09-16T11:48:44.311Z,24.23
2022-09-16T11:51:40.038Z,23.24
2022-09-16T11:54:18.442Z,23.67
2022-09-16T11:56:57.344Z,23.72
2022-09-16T11:59:30.306Z,24.32
2022-09-16T12:02:00.489Z,24.39
2022-09-16T12:04:53.934Z,24.42
2022-09-16T12:07:23.745Z,24.32
2022-09-16T12:09:55.859Z,24.28
2022-09-16T12:12:25.397Z,24.56
2022-09-16T12:15:12.860Z,23.93
2022-09-16T12:17:40.576Z,23.96
2022-09-16T12:20:15.547Z,23.91
2022-09-16T12:22:59.166Z,23.82
2022-09-16T12:25:29.755Z,23.88
2022-09-16T12:28:32.082Z,23.91
2022-09-16T12:31:23.536Z,24.07
2022-09-16T12:33:56.180Z,24.10
2022-09-16T12:36:27.111Z,23.93
2022-09-16T12:38:54.475Z,23.88
2022-09-16T12:41:40.082Z,23.31
2022-09-16T12:44:34.429Z,23.44
2022-09-16T12:47:26.099Z,23.79
2022-09-16T12:50:05.782Z,23.27
2022-09-16T12:52:40.880Z,22.83
2022-09-16T12:55:20.583Z,23.20
2022-09-16T12:57:47.795Z,23.33
2022-09-16T13:00:37.137Z,23.44
2022-09-16T13:03:21.792Z,23.50
2022-09-16T13:05:54.153Z,23.15
2022-09-16T13:08:25.492Z,23.25
2022-09-16T13:11:29.241Z,23.06
2022-09-16T13:13:50.456Z,23.21
2022-09-16T13:16:35.791Z,23.31
2022-09-16T13:19:24.868Z,23.48
2022-09-16T13:21:57.411Z,23.82
2022-09-16T13:24:51.048Z,24.01
2022-09-16T13:27:27.488Z,23.80
2022-09-16T13:30:13.151Z,23.43
2022-09-16T13:32:56.377Z,23.35
2022-09-16T13:35:44.065Z,23.47
2022-09-16T13:38:24.065Z,23.23
2022-09-16T13:41:02.303Z,23.15
2022-09-16T13:43:53.406Z,23.34
2022-09-16T13:46:37.097Z,23.76
2022-09-16T13:49:11.010Z,23.55
2022-09-16T13:51:45.076Z,23.63
2022-09-16T13:54:21.917Z,23.73
2022-09-16T13:57:02.338Z,23.39
2022-09-16T13:59:50.039Z,23.49
2022-09-16T14:02:27.517Z,23.52
2022-09-16T14:05:11.401Z,23.15
2022-09-16T14:08:19.214Z,23.49
2022-09-16T14:10:50.458Z,22.78
2022-09-16T14:13:19.732Z,23.02
2022-09-16T14:15:50.489Z,23.22
2022-09-16T14:18:20.311Z,23.32
2022-09-16T14:21:01.342Z,22.87
2022-09-16T14:23:29.618Z,22.83
2022-09-16T14:25:57.593Z,22.44
2022-09-16T14:28:26.578Z,22.68
2022-09-16T14:30:57.300Z,22.25
2022-09-16T14:33:56.950Z,22.45
2022-09-16T14:36:29.218Z,22.47
2022-09-16T14:38:57.986Z,22.15
2022-09-16T14:41:30.363Z,22.13
2022-09-16T14:44:17.160Z,22.00
2022-09-16T14:47:21.939Z,21.94
2022-09-16T14:50:05.376Z,22.01
2022-09-16T14:52:33.841Z,21.95
2022-09-16T14:55:01.744Z,21.60
2022-09-16T14:57:30.197Z,21.74
2022-09-16T14:59:58.186Z,22.01
2022-09-16T15:02:34.302Z,21.96
2022-09-16T15:05:44.886Z,21.81
2022-09-16T15:08:26.244Z,22.01
2022-09-16T15:10:55.271Z,21.94
2022-09-16T15:13:28.493Z,21.83
2022-09-16T15:16:03.895Z,21.65
2022-09-16T15:18:33.284Z,21.71
2022-09-16T15:21:18.792Z,21.80
2022-09-16T15:23:47.961Z,21.35
2022-09-16T15:26:19.866Z,21.17
2022-09-16T15:28:54.331Z,20.91
2022-09-16T15:31:36.980Z,20.85
2022-09-16T15:34:18.659Z,21.39
2022-09-16T15:37:27.470Z,20.89
2022-09-16T15:39:55.488Z,20.90
2022-09-16T15:42:26.294Z,21.15
2022-09-16T15:44:56.964Z,21.13
2022-09-16T15:47:25.190Z,20.81
2022-09-16T15:50:16.961Z,20.89
2022-09-16T15:53:03.951Z,20.59
2022-09-16T15:55:43.395Z,20.81
2022-09-16T15:58:18.173Z,20.89
2022-09-16T16:01:04.692Z,20.83
2022-09-16T16:03:44.202Z,20.62
2022-09-16T16:06:12.224Z,20.80
2022-09-16T16:08:48.277Z,20.67
2022-09-16T16:11:19.993Z,20.72
2022-09-16T16:13:47.823Z,20.66
2022-09-16T16:16:15.804Z,20.59
2022-09-16T16:18:43.974Z,20.24
2022-09-16T16:21:16.036Z,20.55
2022-09-16T16:23:43.710Z,20.04
2022-09-16T16:26:11.242Z,20.38
2022-09-16T16:28:38.894Z,20.05
2022-09-16T16:31:17.766Z,20.34
2022-09-16T16:33:46.544Z,20.41
2022-09-16T16:36:14.849Z,20.38
2022-09-16T16:38:42.448Z,19.51
2022-09-16T16:41:12.163Z,20.02
2022-09-16T16:43:40.082Z,20.03
2022-09-16T16:46:07.533Z,20.13
2022-09-16T16:48:35.741Z,20.17
2022-09-16T16:51:05.409Z,20.01
2022-09-16T16:53:33.148Z,20.04
2022-09-16T16:56:14.550Z,20.08
2022-09-16T16:58:46.019Z,20.16
2022-09-16T17:01:17.430Z,19.71
2022-09-16T17:03:46.296Z,20.17
2022-09-16T17:06:13.946Z,20.32
2022-09-16T17:08:41.397Z,20.15
2022-09-16T17:11:13.893Z,20.22
2022-09-16T17:13:43.095Z,20.23
2022-09-16T17:16:12.216Z,20.12
2022-09-16T17:18:40.287Z,19.98
2022-09-16T17:21:08.938Z,19.72
2022-09-16T17:23:36.597Z,19.99
2022-09-16T17:26:04.383Z,19.83
2022-09-16T17:28:31.998Z,19.90
2022-09-16T17:30:59.402Z,19.97
2022-09-16T17:33:27.163Z,19.38
2022-09-16T17:36:01.958Z,19.68
2022-09-16T17:38:29.324Z,19.90
2022-09-16T17:41:06.694Z,19.74
2022-09-16T17:43:35.396Z,19.91
2022-09-16T17:46:11.583Z,19.95
2022-09-16T17:48:39.001Z,19.92
2022-09-16T17:51:06.933Z,19.12
2022-09-16T17:53:34.886Z,19.21
2022-09-16T17:56:31.983Z,19.32
2022-09-16T17:59:01.925Z,19.61
2022-09-16T18:01:30.753Z,19.44
2022-09-16T18:03:58.792Z,19.46
2022-09-16T18:06:30.882Z,19.74
2022-09-16T18:09:02.545Z,19.58
2022-09-16T18:11:31.213Z,19.68
2022-09-16T18:14:00.327Z,19.74
2022-09-16T18:16:29.324Z,19.57
2022-09-16T18:18:59.110Z,19.44
2022-09-16T18:21:27.161Z,19.39
2022-09-16T18:24:00.188Z,19.54
2022-09-16T18:26:29.260Z,19.68
2022-09-16T18:29:14.836Z,19.34
2022-09-16T18:31:45.474Z,19.49
2022-09-16T18:34:14.917Z,19.71
2022-09-16T18:36:42.620Z,19.43
2022-09-16T18:39:14.847Z,19.55
2022-09-16T18:41:44.901Z,19.56
2022-09-16T18:44:19.615Z,19.56
2022-09-16T18:46:48.346Z,19.83
2022-09-16T18:49:20.470Z,19.35
2022-09-16T18:51:51.935Z,19.26
2022-09-16T18:54:25.946Z,19.65
2022-09-16T18:56:59.092Z,19.48
2022-09-16T18:59:31.166Z,19.58
2022-09-16T19:02:02.655Z,19.33
2022-09-16T19:04:31.649Z,19.19
2022-09-16T19:07:07.319Z,19.26
2022-09-16T19:09:37.458Z,19.17
2022-09-16T19:12:09.582Z,19.21
2022-09-16T19:14:37.843Z,19.28
2022-09-16T19:17:05.277Z,19.31
2022-09-16T19:19:33.189Z,19.46
2022-09-16T19:22:05.358Z,19.33
2022-09-16T19:24:33.059Z,19.32
2022-09-16T19:27:00.895Z,19.26
2022-09-16T19:29:28.469Z,19.17
2022-09-16T19:31:56.296Z,19.08
2022-09-16T19:34:24.305Z,19.40
2022-09-16T19:36:51.743Z,19.51
2022-09-16T19:39:21.337Z,19.39
2022-09-16T19:41:51.572Z,18.93
2022-09-16T19:44:19.203Z,19.26
2022-09-16T19:46:49.156Z,19.02
2022-09-16T19:49:19.846Z,19.06
2022-09-16T19:51:48.292Z,18.67
2022-09-16T19:54:16.189Z,18.78
2022-09-16T19:56:48.147Z,19.18
2022-09-16T19:59:17.884Z,19.04
2022-09-16T20:01:46.037Z,18.83
2022-09-16T20:04:14.332Z,18.73
2022-09-16T20:06:41.919Z,18.53
2022-09-16T20:09:11.696Z,18.75
2022-09-16T20:11:41.318Z,18.53
2022-09-16T20:14:13.539Z,18.75
2022-09-16T20:16:41.341Z,18.76
2022-09-16T20:19:11.305Z,18.79
2022-09-16T20:21:38.814Z,18.70
2022-09-16T20:24:07.849Z,18.82
2022-09-16T20:26:35.552Z,19.00
2022-09-16T20:29:03.177Z,18.81
2022-09-16T20:31:32.631Z,18.14
2022-09-16T20:34:00.144Z,18.11
2022-09-16T20:36:30.485Z,18.20
2022-09-16T20:39:01.265Z,18.20
2022-09-16T20:41:30.638Z,18.51
2022-09-16T20:43:59.049Z,18.41
2022-09-16T20:46:28.072Z,18.43
2022-09-16T20:48:56.634Z,18.67
2022-09-16T20:51:25.796Z,18.55
2022-09-16T20:54:07.830Z,18.31
2022-09-16T20:56:42.986Z,18.67
2022-09-16T20:59:11.752Z,18.52
2022-09-16T21:01:39.743Z,18.52
2022-09-16T21:04:11.686Z,18.35
2022-09-16T21:06:39.426Z,18.08
2022-09-16T21:09:08.838Z,18.11
2022-09-16T21:11:36.211Z,17.70
2022-09-16T21:14:06.552Z,17.91
2022-09-16T21:16:36.213Z,17.41
2022-09-16T21:19:05.480Z,16.92
2022-09-16T21:21:32.840Z,16.91
2022-09-16T21:24:01.368Z,16.84
2022-09-16T21:26:32.728Z,16.56
2022-09-16T21:29:01.449Z,16.72
2022-09-16T21:31:30.272Z,16.67
2022-09-16T21:33:58.063Z,16.27
2022-09-16T21:36:26.750Z,15.51
2022-09-16T21:38:54.887Z,15.68
2022-09-16T21:41:22.473Z,15.14
2022-09-16T21:43:51.645Z,15.57
2022-09-16T21:46:20.565Z,15.82
2022-09-16T21:48:48.612Z,15.57
2022-09-16T21:51:17.765Z,15.63
2022-09-16T21:53:45.698Z,15.85
2022-09-16T21:56:14.833Z,15.46
2022-09-16T21:58:42.271Z,16.20
2022-09-16T22:01:18.879Z,16.09
2022-09-16T22:04:02.851Z,16.18
2022-09-16T22:06:30.365Z,15.81
2022-09-16T22:09:00.886Z,15.80
2022-09-16T22:11:29.864Z,15.78
2022-09-16T22:14:00.406Z,16.20
2022-09-16T22:16:29.854Z,15.88
2022-09-16T22:19:01.880Z,15.75
2022-09-16T22:21:31.276Z,15.98
2022-09-16T22:23:59.496Z,15.60
2022-09-16T22:26:27.041Z,15.25
2022-09-16T22:28:54.713Z,15.64
2022-09-16T22:31:29.859Z,15.94
2022-09-16T22:33:58.974Z,15.81
2022-09-16T22:36:30.599Z,15.85
2022-09-16T22:39:00.985Z,15.02
2022-09-16T22:41:29.029Z,15.43
2022-09-16T22:43:56.363Z,14.92
2022-09-16T22:46:28.850Z,14.89
2022-09-16T22:48:56.984Z,15.41
2022-09-16T22:51:24.725Z,15.73
2022-09-16T22:53:52.192Z,14.80
2022-09-16T22:56:21.361Z,14.89
2022-09-16T22:58:53.560Z,15.24
2022-09-16T23:01:23.549Z,15.35
2022-09-16T23:03:53.450Z,15.83
2022-09-16T23:06:20.933Z,15.27
2022-09-16T23:09:07.269Z,15.90
2022-09-16T23:11:53.302Z,15.97
2022-09-16T23:14:21.813Z,16.13
2022-09-16T23:16:49.486Z,16.03
2022-09-16T23:19:16.907Z,15.90
2022-09-16T23:21:44.422Z,16.14
2022-09-16T23:24:15.244Z,15.51
2022-09-16T23:26:42.893Z,15.85
2022-09-16T23:29:10.600Z,16.19
2022-09-16T23:31:40.435Z,15.54
2022-09-16T23:34:19.454Z,15.31
2022-09-16T23:36:47.221Z,15.24
2022-09-16T23:39:15.240Z,15.50
2022-09-16T23:41:43.330Z,15.70
2022-09-16T23:44:14.423Z,15.82
2022-09-16T23:46:41.827Z,16.12
2022-09-16T23:49:10.119Z,15.87
2022-09-16T23:51:37.987Z,15.70
2022-09-16T23:54:05.441Z,15.72
2022-09-16T23:56:32.777Z,15.64
2022-09-16T23:59:00.806Z,15.85
